createdAt,value
2022-11-03T00:00:41.263Z,5.69
2022-11-03T00:03:42.771Z,5.64
2022-11-03T00:06:46.217Z,5.53
2022-11-03T00:09:47.882Z,5.51
2022-11-03T00:12:49.438Z,5.50
2022-11-03T00:15:51.005Z,5.55
2022-11-03T00:18:53.049Z,5.54
2022-11-03T00:21:54.542Z,5.50
2022-11-03T00:24:56.082Z,5.49
2022-11-03T00:27:58.141Z,5.49
2022-11-03T00:31:02.002Z,5.51
2022-11-03T00:34:04.696Z,5.52
2022-11-03T00:37:06.202Z,5.49
2022-11-03T00:40:08.346Z,5.51
2022-11-03T00:43:09.862Z,5.49
2022-11-03T00:46:11.547Z,5.38
2022-11-03T00:49:13.059Z,5.37
2022-11-03T00:52:14.570Z,5.38
2022-11-03T00:55:16.175Z,5.40
2022-11-03T00:58:17.719Z,5.40
2022-11-03T01:01:24.715Z,5.39
2022-11-03T01:04:45.166Z,5.37
2022-11-03T01:07:46.655Z,5.37
2022-11-03T01:11:06.585Z,5.37
2022-11-03T01:14:13.258Z,5.35
2022-11-03T01:17:20.525Z,5.34
2022-11-03T01:20:22.006Z,5.35
2022-11-03T01:23:24.182Z,5.37
2022-11-03T01:26:25.711Z,5.38
2022-11-03T01:29:27.220Z,5.38
2022-11-03T01:32:28.730Z,5.35
2022-11-03T01:35:30.246Z,5.36
2022-11-03T01:38:33.459Z,5.35
2022-11-03T01:41:35.005Z,5.25
2022-11-03T01:44:39.607Z,5.24
2022-11-03T01:47:43.617Z,5.25
2022-11-03T01:50:47.458Z,5.26
2022-11-03T01:53:52.938Z,5.20
2022-11-03T01:56:55.520Z,5.20
2022-11-03T01:59:58.876Z,5.18
2022-11-03T02:03:01.207Z,5.19
2022-11-03T02:06:03.198Z,5.19
2022-11-03T02:09:11.022Z,5.12
2022-11-03T02:12:15.621Z,5.12
2022-11-03T02:15:19.930Z,5.14
2022-11-03T02:18:26.147Z,5.16
2022-11-03T02:21:45.033Z,5.16
2022-11-03T02:24:58.687Z,5.20
2022-11-03T02:28:00.744Z,5.25
2022-11-03T02:31:21.109Z,5.24
2022-11-03T02:34:45.039Z,5.22
2022-11-03T02:37:52.095Z,5.13
2022-11-03T02:40:55.520Z,5.09
2022-11-03T02:43:58.323Z,5.06
2022-11-03T02:47:03.951Z,5.06
2022-11-03T02:50:10.359Z,5.08
2022-11-03T02:53:13.804Z,5.11
2022-11-03T02:56:20.948Z,5.14
2022-11-03T02:59:30.816Z,5.17
2022-11-03T03:03:07.191Z,5.15
2022-11-03T03:06:13.650Z,5.14
2022-11-03T03:09:24.531Z,5.12
2022-11-03T03:12:27.766Z,5.04
2022-11-03T03:16:11.293Z,5.06
2022-11-03T03:19:26.668Z,5.12
2022-11-03T03:22:49.302Z,5.19
2022-11-03T03:26:13.819Z,5.25
2022-11-03T03:29:20.635Z,5.25
2022-11-03T03:32:25.810Z,5.29
2022-11-03T03:35:30.858Z,5.33
2022-11-03T03:38:37.878Z,5.36
2022-11-03T03:41:40.559Z,5.36
2022-11-03T03:44:43.598Z,5.40
2022-11-03T03:47:45.912Z,5.42
2022-11-03T03:50:49.647Z,5.43
2022-11-03T03:53:52.603Z,5.45
2022-11-03T03:57:03.161Z,5.45
2022-11-03T04:00:06.225Z,5.45
2022-11-03T04:03:20.083Z,5.48
2022-11-03T04:06:21.658Z,5.50
2022-11-03T04:09:23.166Z,5.47
2022-11-03T04:12:43.109Z,5.46
2022-11-03T04:16:03.087Z,5.44
2022-11-03T04:19:22.900Z,5.44
2022-11-03T04:22:30.864Z,5.41
2022-11-03T04:25:32.438Z,5.32
2022-11-03T04:28:33.981Z,5.26
2022-11-03T04:31:36.505Z,5.29
2022-11-03T04:34:38.000Z,5.33
2022-11-03T04:37:43.581Z,5.34
2022-11-03T04:40:55.131Z,5.32
2022-11-03T04:43:57.537Z,5.32
2022-11-03T04:46:59.063Z,5.33
2022-11-03T04:50:00.571Z,5.36
2022-11-03T04:53:02.082Z,5.41
2022-11-03T04:56:17.555Z,5.39
2022-11-03T04:59:19.163Z,5.36
2022-11-03T05:02:21.367Z,5.36
2022-11-03T05:05:25.243Z,5.36
2022-11-03T05:08:26.731Z,5.35
2022-11-03T05:11:37.366Z,5.43
2022-11-03T05:14:38.925Z,5.46
2022-11-03T05:17:40.484Z,5.43
2022-11-03T05:20:56.517Z,5.44
2022-11-03T05:24:03.665Z,5.45
2022-11-03T05:27:11.408Z,5.47
2022-11-03T05:30:14.929Z,5.45
2022-11-03T05:33:25.445Z,5.39
2022-11-03T05:36:30.618Z,5.35
2022-11-03T05:39:37.109Z,5.36
2022-11-03T05:42:42.491Z,5.38
2022-11-03T05:45:44.316Z,5.39
2022-11-03T05:48:46.088Z,5.40
2022-11-03T05:51:47.714Z,5.46
2022-11-03T05:54:50.341Z,5.57
2022-11-03T05:57:52.731Z,5.71
2022-11-03T06:00:54.686Z,5.75
2022-11-03T06:03:57.487Z,5.76
2022-11-03T06:07:02.261Z,5.79
2022-11-03T06:10:31.063Z,5.79
2022-11-03T06:13:37.850Z,5.82
2022-11-03T06:16:43.722Z,5.83
2022-11-03T06:19:50.566Z,5.85
2022-11-03T06:22:55.466Z,5.90
2022-11-03T06:25:57.431Z,5.89
2022-11-03T06:29:00.069Z,5.87
2022-11-03T06:32:01.971Z,5.85
2022-11-03T06:35:03.761Z,5.85
2022-11-03T06:38:16.355Z,5.86
2022-11-03T06:41:29.952Z,5.91
2022-11-03T06:44:31.429Z,5.98
2022-11-03T06:47:33.150Z,6.04
2022-11-03T06:50:34.607Z,6.20
2022-11-03T06:53:36.704Z,6.36
2022-11-03T06:56:38.339Z,6.47
2022-11-03T06:59:39.914Z,6.60
2022-11-03T07:03:01.725Z,6.67
2022-11-03T07:06:25.507Z,6.71
2022-11-03T07:09:27.279Z,6.80
2022-11-03T07:12:28.854Z,6.92
2022-11-03T07:15:38.135Z,7.00
2022-11-03T07:18:44.081Z,7.10
2022-11-03T07:21:58.768Z,7.20
2022-11-03T07:25:03.776Z,7.33
2022-11-03T07:28:06.072Z,7.53
2022-11-03T07:31:31.599Z,7.64
2022-11-03T07:34:33.962Z,7.74
2022-11-03T07:37:35.886Z,7.81
2022-11-03T07:40:37.692Z,7.90
2022-11-03T07:43:39.388Z,7.98
2022-11-03T07:46:43.031Z,8.07
2022-11-03T07:49:45.023Z,8.20
2022-11-03T07:52:46.535Z,8.35
2022-11-03T07:55:48.685Z,8.43
2022-11-03T07:59:01.522Z,8.56
2022-11-03T08:02:24.821Z,8.72
2022-11-03T08:05:26.945Z,8.88
2022-11-03T08:08:28.465Z,8.98
2022-11-03T08:11:30.507Z,9.17
2022-11-03T08:14:32.009Z,9.36
2022-11-03T08:17:33.528Z,9.56
2022-11-03T08:20:35.055Z,9.70
2022-11-03T08:23:36.667Z,9.85
2022-11-03T08:26:38.193Z,9.96
2022-11-03T08:29:39.714Z,10.05
2022-11-03T08:32:41.190Z,10.24
2022-11-03T08:35:42.745Z,10.63
2022-11-03T08:38:44.220Z,10.82
2022-11-03T08:41:45.839Z,11.03
2022-11-03T08:44:47.545Z,11.24
2022-11-03T08:47:48.964Z,11.26
2022-11-03T08:50:50.531Z,11.34
2022-11-03T08:53:54.036Z,11.40
2022-11-03T08:56:55.585Z,11.52
2022-11-03T08:59:57.892Z,11.65
2022-11-03T09:02:59.483Z,11.90
2022-11-03T09:06:00.960Z,12.16
2022-11-03T09:12:24.089Z,12.73
2022-11-03T09:15:25.756Z,12.85
2022-11-03T09:18:27.282Z,13.04
2022-11-03T09:21:28.826Z,13.32
2022-11-03T09:24:30.835Z,13.54
2022-11-03T09:27:32.351Z,13.73
2022-11-03T09:30:33.813Z,13.73
2022-11-03T09:33:35.351Z,13.67
2022-11-03T09:36:37.023Z,13.62
2022-11-03T09:39:38.638Z,13.67
2022-11-03T09:42:41.138Z,13.81
2022-11-03T09:45:42.734Z,13.92
2022-11-03T09:48:44.577Z,13.98
2022-11-03T09:51:46.511Z,14.09
2022-11-03T09:54:48.337Z,14.17
2022-11-03T09:57:52.608Z,14.30
2022-11-03T10:00:54.482Z,14.37
2022-11-03T10:04:00.094Z,14.50
2022-11-03T10:07:01.618Z,14.56
2022-11-03T10:10:03.478Z,14.68
2022-11-03T10:13:09.137Z,14.74
2022-11-03T10:16:15.386Z,14.78
2022-11-03T10:19:18.371Z,14.82
2022-11-03T10:22:21.042Z,14.91
2022-11-03T10:25:43.663Z,15.04
2022-11-03T10:29:09.787Z,15.08
2022-11-03T10:32:33.497Z,15.19
2022-11-03T10:35:35.491Z,15.26
2022-11-03T10:38:37.468Z,15.28
2022-11-03T10:41:55.999Z,15.37
2022-11-03T10:45:20.239Z,15.39
2022-11-03T10:48:22.151Z,15.46
2022-11-03T10:51:23.723Z,15.54
2022-11-03T10:54:25.448Z,15.57
2022-11-03T10:57:28.576Z,15.62
2022-11-03T11:00:30.118Z,15.51
2022-11-03T11:03:32.643Z,15.43
2022-11-03T11:06:34.289Z,15.45
2022-11-03T11:09:36.333Z,15.42
2022-11-03T11:12:38.135Z,15.49
2022-11-03T11:15:39.737Z,15.52
2022-11-03T11:18:41.354Z,15.59
2022-11-03T11:21:42.841Z,15.70
2022-11-03T11:24:44.298Z,15.84
2022-11-03T11:27:45.790Z,15.90
2022-11-03T11:30:53.093Z,15.99
2022-11-03T11:34:09.751Z,16.01
2022-11-03T11:37:11.233Z,16.04
2022-11-03T11:40:23.262Z,16.02
2022-11-03T11:43:28.007Z,15.89
2022-11-03T11:46:40.779Z,15.76
2022-11-03T11:49:42.294Z,15.69
2022-11-03T11:53:01.939Z,15.66
2022-11-03T11:56:03.547Z,15.66
2022-11-03T11:59:05.048Z,15.70
2022-11-03T12:02:19.486Z,15.72
2022-11-03T12:05:24.071Z,15.70
2022-11-03T12:08:29.686Z,15.66
2022-11-03T12:11:55.495Z,15.68
2022-11-03T12:14:58.021Z,15.79
2022-11-03T12:17:59.507Z,15.85
2022-11-03T12:21:02.636Z,15.91
2022-11-03T12:24:28.139Z,15.89
2022-11-03T12:27:29.646Z,15.90
2022-11-03T12:30:34.309Z,15.91
2022-11-03T12:33:38.791Z,15.92
2022-11-03T12:36:40.265Z,15.93
2022-11-03T12:39:41.823Z,15.90
2022-11-03T12:42:43.448Z,15.84
2022-11-03T12:45:45.030Z,15.82
2022-11-03T12:48:48.007Z,15.74
2022-11-03T12:51:49.782Z,15.73
2022-11-03T12:54:51.452Z,15.84
2022-11-03T12:57:52.928Z,16.03
2022-11-03T13:00:56.349Z,16.23
2022-11-03T13:04:00.771Z,16.38
2022-11-03T13:07:02.532Z,16.45
2022-11-03T13:10:04.808Z,16.50
2022-11-03T13:13:07.292Z,16.50
2022-11-03T13:16:09.010Z,16.47
2022-11-03T13:19:10.775Z,16.46
2022-11-03T13:22:12.328Z,16.48
2022-11-03T13:25:13.950Z,16.46
2022-11-03T13:28:15.526Z,16.38
2022-11-03T13:31:17.046Z,16.27
2022-11-03T13:34:18.603Z,16.19
2022-11-03T13:37:20.156Z,16.11
2022-11-03T13:43:43.172Z,15.87
2022-11-03T13:46:44.696Z,15.87
2022-11-03T13:50:13.065Z,15.89
2022-11-03T13:56:29.279Z,15.94
2022-11-03T13:59:30.870Z,15.97
2022-11-03T14:05:54.128Z,16.02
2022-11-03T14:08:55.715Z,16.01
2022-11-03T14:12:15.973Z,15.95
2022-11-03T14:15:17.623Z,15.95
2022-11-03T14:18:19.175Z,16.03
2022-11-03T14:21:20.726Z,16.16
2022-11-03T14:24:22.254Z,16.24
2022-11-03T14:27:23.831Z,16.20
2022-11-03T14:30:25.446Z,16.08
2022-11-03T14:33:27.184Z,15.95
2022-11-03T14:36:29.059Z,15.82
2022-11-03T14:39:30.805Z,15.72
2022-11-03T14:42:32.323Z,15.58
2022-11-03T14:45:35.871Z,15.45
2022-11-03T14:48:39.902Z,15.32
2022-11-03T14:51:41.461Z,15.22
2022-11-03T14:54:43.736Z,15.10
2022-11-03T14:57:45.299Z,14.99
2022-11-03T15:00:46.832Z,15.02
2022-11-03T15:03:48.465Z,14.96
2022-11-03T15:06:50.274Z,14.89
2022-11-03T15:09:51.845Z,14.71
2022-11-03T15:12:53.307Z,14.57
2022-11-03T15:15:54.997Z,14.48
2022-11-03T15:18:56.629Z,14.34
2022-11-03T15:21:58.079Z,14.27
2022-11-03T15:25:17.104Z,14.22
2022-11-03T15:28:21.371Z,14.19
2022-11-03T15:31:23.691Z,14.06
2022-11-03T15:34:25.215Z,13.99
2022-11-03T15:37:26.817Z,13.96
2022-11-03T15:40:28.422Z,13.92
2022-11-03T15:43:29.934Z,13.88
2022-11-03T15:46:31.468Z,13.77
2022-11-03T15:49:33.064Z,13.72
2022-11-03T15:52:34.979Z,13.69
2022-11-03T15:55:39.475Z,13.76
2022-11-03T15:58:40.922Z,13.71
2022-11-03T16:01:45.451Z,13.71
2022-11-03T16:04:46.932Z,13.65
2022-11-03T16:07:48.538Z,13.60
2022-11-03T16:10:56.284Z,13.53
2022-11-03T16:13:59.962Z,13.47
2022-11-03T16:17:01.490Z,13.43
2022-11-03T16:20:03.198Z,13.37
2022-11-03T16:23:04.808Z,13.32
2022-11-03T16:26:07.084Z,13.31
2022-11-03T16:29:08.608Z,13.28
2022-11-03T16:32:10.170Z,13.24
2022-11-03T16:35:12.912Z,13.22
2022-11-03T16:38:15.500Z,13.18
2022-11-03T16:41:17.205Z,13.14
2022-11-03T16:44:18.811Z,13.10
2022-11-03T16:47:20.374Z,13.08
2022-11-03T16:50:21.945Z,13.03
2022-11-03T16:53:26.775Z,12.97
2022-11-03T16:56:28.396Z,12.91
2022-11-03T16:59:29.991Z,12.85
2022-11-03T17:02:31.658Z,12.81
2022-11-03T17:05:33.414Z,12.77
2022-11-03T17:11:56.543Z,12.83
2022-11-03T17:14:58.561Z,12.85
2022-11-03T17:18:00.167Z,12.87
2022-11-03T17:21:01.692Z,12.95
2022-11-03T17:24:06.602Z,12.98
2022-11-03T17:27:16.739Z,12.93
2022-11-03T17:30:23.943Z,13.08
2022-11-03T17:33:25.462Z,13.28
2022-11-03T17:36:27.052Z,13.43
2022-11-03T17:39:33.548Z,13.57
2022-11-03T17:42:35.163Z,13.63
2022-11-03T17:45:36.821Z,13.59
2022-11-03T17:48:39.197Z,13.48
2022-11-03T17:51:42.410Z,13.38
2022-11-03T17:54:44.431Z,13.23
2022-11-03T17:57:46.442Z,13.13
2022-11-03T18:00:48.136Z,12.98
2022-11-03T18:03:49.713Z,12.83
2022-11-03T18:06:51.382Z,12.69
2022-11-03T18:09:53.512Z,12.57
2022-11-03T18:13:17.727Z,12.45
2022-11-03T18:16:19.232Z,12.42
2022-11-03T18:19:21.814Z,12.33
2022-11-03T18:22:23.427Z,12.25
2022-11-03T18:25:25.486Z,12.25
2022-11-03T18:28:27.179Z,12.13
2022-11-03T18:31:31.243Z,12.03
2022-11-03T18:34:35.393Z,11.92
2022-11-03T18:37:37.896Z,11.86
2022-11-03T18:40:39.728Z,11.89
2022-11-03T18:43:41.822Z,11.89
2022-11-03T18:46:43.675Z,11.79
2022-11-03T18:49:45.447Z,11.81
2022-11-03T18:52:49.133Z,11.79
2022-11-03T18:55:50.844Z,11.80
2022-11-03T18:58:54.882Z,11.82
2022-11-03T19:01:56.479Z,11.79
2022-11-03T19:04:58.150Z,11.70
2022-11-03T19:07:59.721Z,11.64
2022-11-03T19:11:04.152Z,11.66
2022-11-03T19:14:08.090Z,11.54
2022-11-03T19:17:22.986Z,11.39
2022-11-03T19:20:25.556Z,11.35
2022-11-03T19:23:27.114Z,11.38
2022-11-03T19:26:34.902Z,11.33
2022-11-03T19:29:40.011Z,11.36
2022-11-03T19:32:48.871Z,11.35
2022-11-03T19:35:50.566Z,11.31
2022-11-03T19:38:52.167Z,11.36
2022-11-03T19:42:12.309Z,11.36
2022-11-03T19:45:18.876Z,11.36
2022-11-03T19:48:24.801Z,11.30
2022-11-03T19:51:27.343Z,11.32
2022-11-03T19:54:29.376Z,11.39
2022-11-03T19:57:31.198Z,11.26
2022-11-03T20:00:33.745Z,11.34
2022-11-03T20:03:38.295Z,11.29
2022-11-03T20:06:41.021Z,11.42
2022-11-03T20:09:43.223Z,11.50
2022-11-03T20:12:46.130Z,11.52
2022-11-03T20:15:48.136Z,11.59
2022-11-03T20:18:50.060Z,11.64
2022-11-03T20:21:51.863Z,11.69
2022-11-03T20:24:57.891Z,11.67
2022-11-03T20:27:59.882Z,11.64
2022-11-03T20:31:03.679Z,11.61
2022-11-03T20:34:05.306Z,11.47
2022-11-03T20:37:17.148Z,11.23
2022-11-03T20:40:22.016Z,11.13
2022-11-03T20:43:40.256Z,11.00
2022-11-03T20:46:42.885Z,10.89
2022-11-03T20:49:45.554Z,10.79
2022-11-03T20:52:48.180Z,10.73
2022-11-03T20:55:52.202Z,10.71
2022-11-03T20:58:54.714Z,10.71
2022-11-03T21:01:57.390Z,10.69
2022-11-03T21:05:00.035Z,10.65
2022-11-03T21:08:01.683Z,10.68
2022-11-03T21:11:24.595Z,10.67
2022-11-03T21:14:31.088Z,10.68
2022-11-03T21:17:53.518Z,10.71
2022-11-03T21:20:56.604Z,10.66
2022-11-03T21:23:58.260Z,10.64
2022-11-03T21:26:59.945Z,10.67
2022-11-03T21:30:01.608Z,10.63
2022-11-03T21:33:03.200Z,10.56
2022-11-03T21:36:05.226Z,10.58
2022-11-03T21:39:06.789Z,10.63
2022-11-03T21:42:32.447Z,10.63
2022-11-03T21:45:34.119Z,10.61
2022-11-03T21:48:56.331Z,10.61
2022-11-03T21:51:57.958Z,10.55
2022-11-03T21:55:04.224Z,10.51
2022-11-03T21:58:05.895Z,10.51
2022-11-03T22:01:18.081Z,10.52
2022-11-03T22:04:23.580Z,10.54
2022-11-03T22:07:27.597Z,10.54
2022-11-03T22:10:29.226Z,10.56
2022-11-03T22:13:30.755Z,10.61
2022-11-03T22:16:38.194Z,10.57
2022-11-03T22:19:58.207Z,10.56
2022-11-03T22:23:19.034Z,10.53
2022-11-03T22:26:38.829Z,10.50
2022-11-03T22:30:02.855Z,10.52
2022-11-03T22:33:04.429Z,10.52
2022-11-03T22:36:24.088Z,10.52
2022-11-03T22:39:44.121Z,10.48
2022-11-03T22:43:04.112Z,10.45
2022-11-03T22:46:06.056Z,10.42
2022-11-03T22:49:07.627Z,10.47
2022-11-03T22:52:10.756Z,10.47
2022-11-03T22:55:12.255Z,10.47
2022-11-03T22:58:13.776Z,10.47
2022-11-03T23:01:18.424Z,10.44
2022-11-03T23:04:20.253Z,10.44
2022-11-03T23:07:23.062Z,10.38
2022-11-03T23:10:28.480Z,10.33
2022-11-03T23:13:30.130Z,10.32
2022-11-03T23:16:44.825Z,10.31
2022-11-03T23:20:04.886Z,10.31
2022-11-03T23:23:06.699Z,10.30
2022-11-03T23:26:09.042Z,10.28
2022-11-03T23:29:14.295Z,10.25
2022-11-03T23:32:15.799Z,10.21
2022-11-03T23:35:17.634Z,10.19
2022-11-03T23:38:19.142Z,10.20
2022-11-03T23:41:20.721Z,10.19
2022-11-03T23:44:22.263Z,10.22
2022-11-03T23:47:42.336Z,10.25
2022-11-03T23:50:43.984Z,10.19
2022-11-03T23:53:46.421Z,10.18
2022-11-03T23:57:06.411Z,10.17
